Time;durP1;ratioP1;P1;durP2;ratioP2;P2;SDS_P1;SDS_P2;PMS_P1;PMS_P2;Temp;Humidity;BMP_temperature;BMP_pressure;BME280_temperature;BME280_humidity;BME280_pressure;Samples;Min_cycle;Max_cycle;Signal;HPM_P1;HPM_P2
2021/04/24 00:00:25;;;;;;;44.67;22.30;;;;;;;4.60;77.53;99116.41;115110;1200;24565;-80
2021/04/24 00:03:11;;;;;;;47.38;24.53;;;;;;;4.58;77.47;99106.84;115122;1200;27236;-80
2021/04/24 00:05:42;;;;;;;44.25;22.05;;;;;;;4.58;76.96;99098.75;115196;1203;23435;-80
2021/04/24 00:08:11;;;;;;;42.80;23.63;;;;;;;4.57;77.41;99097.93;115171;1199;23303;-80
2021/04/24 00:10:42;;;;;;;49.23;24.57;;;;;;;4.54;77.62;99092.91;115249;1199;23135;-80
2021/04/24 00:13:11;;;;;;;50.57;25.10;;;;;;;4.53;77.18;99093.92;115100;1199;27217;-80
2021/04/24 00:15:39;;;;;;;47.88;23.68;;;;;;;4.50;77.74;99097.84;115348;1200;23529;-80
2021/04/24 00:18:07;;;;;;;53.37;26.43;;;;;;;4.48;77.79;99085.56;115129;1199;23115;-80
2021/04/24 00:20:35;;;;;;;51.20;23.70;;;;;;;4.47;77.45;99092.00;115147;1203;23226;-80
2021/04/24 00:23:03;;;;;;;50.10;24.33;;;;;;;4.45;77.20;99092.19;115098;1199;27268;-80
2021/04/24 00:25:30;;;;;;;54.37;24.33;;;;;;;4.43;76.75;99098.81;115200;1202;23199;-80
2021/04/24 00:27:58;;;;;;;56.70;26.37;;;;;;;4.35;76.27;99087.08;115049;1199;23112;-80
2021/04/24 00:30:25;;;;;;;51.35;24.15;;;;;;;4.30;76.03;99086.84;115163;1203;23126;-80
2021/04/24 00:32:53;;;;;;;51.10;23.85;;;;;;;4.28;76.40;99086.16;115047;1200;23406;-80
2021/04/24 00:35:21;;;;;;;50.20;24.65;;;;;;;4.27;77.04;99089.91;115089;1202;24555;-80
2021/04/24 00:37:49;;;;;;;51.30;26.20;;;;;;;4.24;77.04;99090.27;115248;1202;23123;-80
2021/04/24 00:40:19;;;;;;;59.73;27.03;;;;;;;4.23;76.52;99082.37;115109;1202;23118;-80
2021/04/24 00:42:48;;;;;;;49.57;24.83;;;;;;;4.22;76.72;99089.63;115211;1200;23117;-80
2021/04/24 00:45:19;;;;;;;47.15;22.65;;;;;;;4.18;76.17;99088.34;115188;1199;23231;-80
2021/04/24 00:47:47;;;;;;;52.73;24.93;;;;;;;4.15;76.89;99097.63;115135;1202;23223;-80
2021/04/24 00:50:22;;;;;;;50.63;24.53;;;;;;;4.15;76.89;99088.71;115085;1199;23139;-80
2021/04/24 00:52:50;;;;;;;53.07;25.30;;;;;;;4.15;76.71;99094.93;115078;1203;26015;-80
2021/04/24 00:55:17;;;;;;;53.87;26.17;;;;;;;4.14;76.98;99095.11;115072;1202;23178;-80
2021/04/24 00:57:45;;;;;;;50.50;25.37;;;;;;;4.12;76.76;99095.30;115097;1203;23138;-80
2021/04/24 01:00:14;;;;;;;56.10;24.35;;;;;;;4.08;76.49;99091.31;115220;1200;23143;-80
2021/04/24 01:02:41;;;;;;;48.00;24.27;;;;;;;4.05;76.28;99094.38;115164;1200;24736;-80
2021/04/24 01:05:34;;;;;;;52.07;24.53;;;;;;;4.02;76.81;99089.38;115234;1203;23565;-80
2021/04/24 01:08:02;;;;;;;59.70;25.93;;;;;;;4.02;77.23;99091.22;115105;1202;24895;-80
2021/04/24 01:10:34;;;;;;;60.30;26.33;;;;;;;4.01;77.20;99090.39;115172;1199;26602;-79
2021/04/24 01:13:01;;;;;;;51.90;27.00;;;;;;;4.02;77.50;99092.08;115058;1200;24774;-80
2021/04/24 01:15:30;;;;;;;55.70;26.43;;;;;;;4.02;77.37;99083.13;115294;1199;23125;-80
2021/04/24 01:17:56;;;;;;;52.77;26.10;;;;;;;3.99;77.23;99087.05;115042;1202;23119;-80
2021/04/24 01:20:24;;;;;;;51.20;26.10;;;;;;;3.99;77.45;99087.05;115060;1202;23160;-79
2021/04/24 01:22:51;;;;;;;52.10;27.60;;;;;;;3.96;77.41;99093.63;115102;1202;26074;-79
2021/04/24 01:25:24;;;;;;;55.87;26.23;;;;;;;3.95;77.60;99091.16;115188;1199;23774;-80
2021/04/24 01:27:57;;;;;;;58.63;27.73;;;;;;;3.90;77.44;99086.31;115154;1202;26201;-79
2021/04/24 01:30:30;;;;;;;61.03;28.73;;;;;;;3.84;77.01;99080.83;115091;1202;23253;-80
2021/04/24 01:32:59;;;;;;;58.35;27.15;;;;;;;3.79;76.95;99079.53;115153;1202;23111;-79
2021/04/24 01:35:29;;;;;;;56.50;24.90;;;;;;;3.74;76.76;99075.73;115201;1202;23249;-79
2021/04/24 01:37:57;;;;;;;52.77;24.73;;;;;;;3.68;76.98;99068.38;115198;1199;23125;-80
2021/04/24 01:40:25;;;;;;;45.60;21.57;;;;;;;3.63;76.36;99066.26;115264;1202;23123;-79
2021/04/24 01:42:52;;;;;;;58.23;24.63;;;;;;;3.57;76.40;99066.98;115144;1200;23128;-80
2021/04/24 01:45:21;;;;;;;56.93;26.03;;;;;;;3.51;76.45;99067.73;114807;1202;23842;-80
2021/04/24 01:47:49;;;;;;;48.10;24.25;;;;;;;3.46;76.45;99065.58;114958;1202;23112;-80
2021/04/24 01:50:23;;;;;;;57.07;26.50;;;;;;;3.44;76.60;99061.42;114831;1199;26230;-81
2021/04/24 01:52:52;;;;;;;54.33;24.67;;;;;;;3.42;76.53;99066.98;115135;1200;23121;-80
2021/04/24 01:55:22;;;;;;;54.07;24.80;;;;;;;3.41;76.38;99063.43;115208;1202;23118;-80
2021/04/24 01:57:51;;;;;;;63.35;25.40;;;;;;;3.40;76.08;99072.55;115016;1202;26926;-80
2021/04/24 02:00:35;;;;;;;51.68;22.05;;;;;;;3.39;76.86;99068.17;115087;1202;23121;-80
2021/04/24 02:03:07;;;;;;;57.60;24.15;;;;;;;3.33;76.49;99062.67;115031;1200;23585;-80
2021/04/24 02:05:34;;;;;;;55.35;25.00;;;;;;;3.27;76.52;99063.42;115173;1200;23176;-80
2021/04/24 02:08:08;;;;;;;55.17;24.33;;;;;;;3.22;76.19;99059.43;115061;1202;23212;-80
2021/04/24 02:10:37;;;;;;;55.30;27.80;;;;;;;3.20;76.13;99052.54;115226;1202;23438;-80
2021/04/24 02:13:14;;;;;;;54.75;26.00;;;;;;;3.18;75.94;99049.20;115158;1200;23179;-80
2021/04/24 02:15:41;;;;;;;55.83;26.90;;;;;;;3.19;75.93;99040.13;115113;1202;23262;-80
2021/04/24 02:18:08;;;;;;;61.25;29.00;;;;;;;3.17;76.33;99045.69;115054;1202;26367;-80
2021/04/24 02:20:37;;;;;;;57.30;28.30;;;;;;;3.17;76.30;99034.06;115080;1202;23175;-80
2021/04/24 02:23:05;;;;;;;61.97;28.97;;;;;;;3.15;76.30;99036.11;115132;1200;23253;-80
2021/04/24 02:25:33;;;;;;;63.50;30.33;;;;;;;3.15;76.19;99022.65;115136;1202;25987;-79
2021/04/24 02:28:01;;;;;;;63.70;32.23;;;;;;;3.16;76.21;99027.85;115152;1199;23179;-80
2021/04/24 02:30:28;;;;;;;57.55;29.05;;;;;;;3.18;76.32;99016.91;115031;1202;23118;-80
2021/04/24 02:32:55;;;;;;;53.75;28.15;;;;;;;3.20;76.38;99009.48;115078;1197;23176;-80
2021/04/24 02:35:53;;;;;;;64.10;30.30;;;;;;;3.21;76.69;99003.09;115104;1200;25984;-80
2021/04/24 02:38:32;;;;;;;62.40;28.40;;;;;;;3.20;76.54;99004.09;114945;1202;23117;-80
2021/04/24 02:41:02;;;;;;;65.88;29.85;;;;;;;3.20;76.79;99015.69;114701;1202;23145;-80
2021/04/24 02:43:29;;;;;;;64.95;30.90;;;;;;;3.18;77.04;99015.05;114761;1200;23141;-80
2021/04/24 02:45:56;;;;;;;60.57;28.80;;;;;;;3.17;76.73;99036.75;114809;1202;26182;-80
2021/04/24 02:48:24;;;;;;;49.67;24.47;;;;;;;3.12;77.98;99048.08;114786;1202;23118;-79
2021/04/24 02:50:51;;;;;;;55.23;28.07;;;;;;;3.06;77.50;99035.34;114735;1202;23196;-80
2021/04/24 02:53:18;;;;;;;50.00;23.97;;;;;;;3.01;77.30;99049.36;114787;1202;23123;-80
2021/04/24 02:55:45;;;;;;;47.03;23.47;;;;;;;2.97;77.17;99048.03;114760;1202;23112;-80
2021/04/24 02:58:12;;;;;;;49.60;25.05;;;;;;;2.94;76.89;99055.63;114717;1202;23111;-80
2021/04/24 03:00:39;;;;;;;49.57;25.97;;;;;;;2.95;77.17;99015.09;114734;1202;26596;-80
2021/04/24 03:03:08;;;;;;;46.90;23.77;;;;;;;2.99;76.77;99031.71;114721;1202;23111;-80
2021/04/24 03:05:36;;;;;;;58.73;25.80;;;;;;;3.03;76.35;99035.73;114895;1202;23253;-80
2021/04/24 03:08:06;;;;;;;48.93;20.33;;;;;;;3.07;75.84;99037.03;114825;1202;23118;-80
2021/04/24 03:10:38;;;;;;;41.60;18.85;;;;;;;3.11;75.83;99034.80;114845;1202;23286;-80
2021/04/24 03:13:07;;;;;;;37.35;18.00;;;;;;;3.13;74.97;99022.83;114727;1200;26367;-80
2021/04/24 03:15:34;;;;;;;26.75;13.00;;;;;;;3.15;74.49;99026.20;114760;1202;23111;-80
2021/04/24 03:18:01;;;;;;;45.05;18.30;;;;;;;3.17;74.60;99039.44;114741;1202;23112;-80
2021/04/24 03:20:28;;;;;;;42.25;18.05;;;;;;;3.20;74.49;99042.60;114746;1200;24876;-80
2021/04/24 03:22:58;;;;;;;33.55;15.60;;;;;;;3.26;74.21;99041.06;114740;1200;23226;-80
2021/04/24 03:25:25;;;;;;;36.30;15.90;;;;;;;3.29;73.75;99035.28;114794;1200;27339;-80
2021/04/24 03:27:52;;;;;;;39.17;18.07;;;;;;;3.30;73.31;99047.73;114723;1202;23196;-80
2021/04/24 03:30:20;;;;;;;36.53;16.03;;;;;;;3.33;73.52;99051.91;114738;1199;23111;-80
2021/04/24 03:32:47;;;;;;;45.03;18.17;;;;;;;3.34;73.19;99043.66;114816;1200;26261;-80
2021/04/24 03:35:14;;;;;;;29.97;15.77;;;;;;;3.33;73.21;99046.52;114794;1202;23207;-80
2021/04/24 03:37:41;;;;;;;42.07;19.53;;;;;;;3.30;73.40;99042.36;114811;1202;24790;-80
2021/04/24 03:40:10;;;;;;;35.10;17.10;;;;;;;3.34;73.17;99061.67;114693;1203;23115;-80
2021/04/24 03:42:37;;;;;;;44.50;18.70;;;;;;;3.34;72.92;99046.34;114836;1202;26045;-79
2021/04/24 03:45:17;;;;;;;36.35;17.05;;;;;;;3.35;72.76;99056.11;114705;1199;23151;-80
2021/04/24 03:47:49;;;;;;;31.47;16.03;;;;;;;3.38;72.69;99079.11;114772;1202;23253;-80
2021/04/24 03:50:18;;;;;;;36.17;15.83;;;;;;;3.37;72.76;99056.75;114677;1199;27249;-79
2021/04/24 03:52:46;;;;;;;33.93;16.05;;;;;;;3.35;72.29;99069.56;114698;1203;27229;-80
2021/04/24 03:55:15;;;;;;;33.13;15.97;;;;;;;3.33;72.70;99068.92;114748;1202;23097;-80
2021/04/24 03:57:47;;;;;;;37.90;18.10;;;;;;;3.32;72.85;99061.84;114902;1200;23141;-80
2021/04/24 04:00:16;;;;;;;31.73;15.17;;;;;;;3.35;72.68;99079.50;114748;1200;25987;-80
2021/04/24 04:02:59;;;;;;;36.10;17.75;;;;;;;3.32;73.64;99087.94;114794;1200;23118;-80
2021/04/24 04:05:45;;;;;;;40.13;18.63;;;;;;;3.28;73.72;99081.26;114841;1202;24935;-80
2021/04/24 04:08:14;;;;;;;34.95;18.40;;;;;;;3.25;73.92;99081.61;114717;1202;24724;-80
2021/04/24 04:10:43;;;;;;;45.65;20.50;;;;;;;3.24;74.28;99083.48;114798;1203;24699;-80
2021/04/24 04:13:12;;;;;;;47.85;23.25;;;;;;;3.22;74.47;99089.04;114773;1199;25981;-80
2021/04/24 04:15:39;;;;;;;44.08;20.73;;;;;;;3.22;74.33;99089.04;114761;1200;26015;-79
2021/04/24 04:18:20;;;;;;;32.85;17.45;;;;;;;3.22;74.75;99090.87;114712;1202;26329;-80
2021/04/24 04:20:52;;;;;;;41.30;20.17;;;;;;;3.22;74.95;99097.11;114793;1202;23121;-80
2021/04/24 04:23:20;;;;;;;42.57;21.90;;;;;;;3.20;75.02;99085.66;114799;1200;23141;-80
2021/04/24 04:25:50;;;;;;;47.87;23.63;;;;;;;3.19;75.09;99089.39;114707;1202;26766;-80
2021/04/24 04:28:18;;;;;;;42.25;21.50;;;;;;;3.21;74.81;99081.14;114857;1199;23334;-80
2021/04/24 04:30:46;;;;;;;45.27;20.93;;;;;;;3.24;75.07;99094.24;114839;1200;26274;-80
2021/04/24 04:33:13;;;;;;;45.53;19.57;;;;;;;3.22;75.12;99093.56;114833;1200;23118;-80
2021/04/24 04:35:41;;;;;;;44.03;21.73;;;;;;;3.21;74.59;99092.73;114746;1200;23148;-80
2021/04/24 04:38:08;;;;;;;35.75;18.30;;;;;;;3.23;75.15;99106.02;115055;1202;24753;-80
2021/04/24 04:40:35;;;;;;;45.20;22.20;;;;;;;3.23;75.46;99098.77;114795;1203;23348;-80
2021/04/24 04:43:04;;;;;;;46.80;22.50;;;;;;;3.26;75.52;99100.27;114752;1201;23115;-80
2021/04/24 04:45:32;;;;;;;37.85;19.00;;;;;;;3.32;75.24;99102.23;114796;1200;23119;-80
2021/04/24 04:47:59;;;;;;;39.83;17.50;;;;;;;3.40;75.46;99101.33;114795;1199;23140;-80
2021/04/24 04:50:29;;;;;;;39.70;18.40;;;;;;;3.45;74.71;99096.20;114716;1202;23118;-80
2021/04/24 04:52:58;;;;;;;42.07;18.07;;;;;;;3.53;74.94;99104.22;114996;1202;26093;-80
2021/04/24 04:55:25;;;;;;;36.00;16.50;;;;;;;3.59;75.03;99092.72;114777;1202;23117;-80
2021/04/24 04:57:53;;;;;;;38.70;17.20;;;;;;;3.64;74.70;99097.53;114746;1202;23292;-80
2021/04/24 05:00:22;;;;;;;32.97;15.50;;;;;;;3.68;74.00;99089.92;114807;1199;23109;-80
2021/04/24 05:02:49;;;;;;;;;;;;;;;3.73;74.03;99093.73;114791;1200;23247;-80
2021/04/24 05:05:17;;;;;;;41.40;16.83;;;;;;;3.79;73.95;99094.88;114767;1200;24319;-80
2021/04/24 05:07:45;;;;;;;40.87;17.10;;;;;;;3.87;73.92;99102.02;114886;1199;23121;-80
2021/04/24 05:10:12;;;;;;;37.83;16.57;;;;;;;3.93;73.76;99101.25;114717;1200;27342;-80
2021/04/24 05:12:39;;;;;;;42.35;17.30;;;;;;;3.98;73.75;99102.39;114877;1200;27466;-80
2021/04/24 05:15:07;;;;;;;38.30;16.30;;;;;;;4.05;73.61;99107.02;114706;1202;23123;-79
2021/04/24 05:17:34;;;;;;;38.60;17.57;;;;;;;4.07;73.94;99103.14;114783;1200;23185;-79
2021/04/24 05:20:01;;;;;;;23.83;10.23;;;;;;;4.10;71.49;99100.04;114721;1200;26060;-79
2021/04/24 05:22:27;;;;;;;35.30;14.80;;;;;;;4.13;72.58;99109.63;114764;1200;23122;-79
2021/04/24 05:24:57;;;;;;;32.57;14.67;;;;;;;4.14;72.15;99098.66;114724;1202;23204;-79
2021/04/24 05:27:24;;;;;;;25.20;10.87;;;;;;;4.17;71.15;99095.57;114812;1200;26760;-79
2021/04/24 05:29:51;;;;;;;32.25;14.10;;;;;;;4.22;70.83;99095.02;114759;1202;23179;-79
2021/04/24 05:32:18;;;;;;;30.17;14.23;;;;;;;4.26;70.63;99090.91;114791;1200;23148;-79
2021/04/24 05:34:48;;;;;;;30.05;13.45;;;;;;;4.34;70.93;99095.38;114731;1203;23109;-79
2021/04/24 05:37:16;;;;;;;28.60;14.90;;;;;;;4.40;71.28;99104.56;114805;1202;23107;-79
2021/04/24 05:39:43;;;;;;;29.17;14.43;;;;;;;4.47;71.17;99105.48;114835;1200;26093;-79
2021/04/24 05:42:11;;;;;;;36.47;15.07;;;;;;;4.53;70.82;99104.70;114753;1199;27307;-80
2021/04/24 05:44:40;;;;;;;30.77;13.33;;;;;;;4.58;70.57;99101.45;114837;1200;26147;-80
2021/04/24 05:47:07;;;;;;;31.70;14.90;;;;;;;4.65;71.27;99110.45;114748;1199;24763;-80
2021/04/24 05:49:35;;;;;;;27.30;12.65;;;;;;;4.69;70.35;99112.59;114784;1202;24411;-80
2021/04/24 05:52:04;;;;;;;20.73;9.13;;;;;;;4.74;69.98;99120.92;114810;1202;23963;-79
2021/04/24 05:54:31;;;;;;;27.93;12.37;;;;;;;4.77;68.85;99126.98;115242;1200;23121;-80
2021/04/24 05:56:58;;;;;;;29.03;12.33;;;;;;;4.82;68.40;99119.98;115136;1199;23118;-80
2021/04/24 05:59:25;;;;;;;29.63;11.93;;;;;;;4.88;69.16;99121.91;115076;1200;27310;-80
2021/04/24 06:01:52;;;;;;;30.35;12.70;;;;;;;4.95;68.77;99127.38;115069;1199;23150;-80
2021/04/24 06:04:19;;;;;;;31.50;14.53;;;;;;;5.03;69.61;99127.27;115080;1200;23123;-80
2021/04/24 06:06:45;;;;;;;34.30;14.57;;;;;;;5.11;68.79;99119.02;115166;1200;27266;-80
2021/04/24 06:09:12;;;;;;;30.10;13.10;;;;;;;5.18;68.74;99126.36;115015;1203;23115;-80
2021/04/24 06:11:39;;;;;;;24.27;11.83;;;;;;;5.25;68.10;99116.45;115237;1200;23118;-80
2021/04/24 06:14:07;;;;;;;20.60;10.50;;;;;;;5.32;68.15;99120.04;115220;1200;23199;-80
2021/04/24 06:16:34;;;;;;;27.50;12.10;;;;;;;5.40;67.92;99125.31;115115;1200;23292;-80
2021/04/24 06:19:00;;;;;;;22.45;10.10;;;;;;;5.48;67.34;99118.92;115111;1199;23103;-80
2021/04/24 06:21:27;;;;;;;17.80;7.80;;;;;;;5.56;64.73;99115.23;115140;1200;23139;-80
2021/04/24 06:23:56;;;;;;;17.40;7.00;;;;;;;5.63;64.27;99121.52;115088;1200;23292;-80
2021/04/24 06:26:23;;;;;;;38.07;13.33;;;;;;;5.70;65.81;99117.85;115113;1202;23179;-80
2021/04/24 06:28:50;;;;;;;26.90;12.85;;;;;;;5.79;66.79;99123.09;115151;1202;23230;-80
2021/04/24 06:31:16;;;;;;;28.53;12.57;;;;;;;5.86;66.91;99119.41;115118;1202;24699;-79
2021/04/24 06:33:43;;;;;;;16.13;6.70;;;;;;;5.93;64.42;99119.44;115085;1200;23111;-80
2021/04/24 06:36:10;;;;;;;15.27;7.10;;;;;;;6.01;61.60;99108.50;115246;1200;24850;-80
2021/04/24 06:38:38;;;;;;;17.47;6.50;;;;;;;6.09;61.93;99112.90;115129;1202;23199;-80
2021/04/24 06:41:05;;;;;;;17.97;8.03;;;;;;;6.17;61.36;99115.45;115083;1200;23176;-80
2021/04/24 06:43:32;;;;;;;13.40;6.50;;;;;;;6.26;61.64;99116.12;115100;1202;24555;-80
2021/04/24 06:45:58;;;;;;;15.90;7.70;;;;;;;6.35;61.28;99104.09;115111;1200;23118;-80
2021/04/24 06:48:25;;;;;;;14.57;8.53;;;;;;;6.44;59.19;99105.57;115213;1199;23114;-80
2021/04/24 06:50:56;;;;;;;14.85;6.10;;;;;;;6.52;60.75;99107.28;115140;1199;27227;-80
2021/04/24 06:53:25;;;;;;;13.40;5.50;;;;;;;6.64;58.78;99105.66;115117;1199;24812;-80
2021/04/24 06:55:54;;;;;;;10.93;5.05;;;;;;;6.72;57.05;99098.39;115092;1202;23134;-80
2021/04/24 06:58:23;;;;;;;12.63;4.85;;;;;;;6.81;57.25;99102.58;115187;1202;23830;-80
2021/04/24 07:00:50;;;;;;;10.93;5.48;;;;;;;6.91;56.25;99096.78;115117;1199;26281;-80
2021/04/24 07:03:17;;;;;;;16.53;5.47;;;;;;;6.92;56.53;99107.38;115065;1200;23323;-80
2021/04/24 07:05:44;;;;;;;14.10;6.20;;;;;;;6.98;56.26;99108.45;115138;1202;25965;-80
2021/04/24 07:08:10;;;;;;;13.37;5.67;;;;;;;7.00;56.90;99107.20;114998;1202;23122;-80
2021/04/24 07:10:37;;;;;;;9.60;4.35;;;;;;;7.07;55.69;99100.97;115035;1200;23745;-80
2021/04/24 07:13:04;;;;;;;10.43;4.13;;;;;;;7.12;54.14;99091.18;115029;1203;24783;-80
2021/04/24 07:15:31;;;;;;;10.80;4.55;;;;;;;7.19;53.28;99097.44;115143;1200;23118;-80
2021/04/24 07:17:58;;;;;;;10.07;4.13;;;;;;;7.29;53.63;99098.89;115143;1199;23255;-80
2021/04/24 07:20:25;;;;;;;12.30;4.63;;;;;;;7.29;52.12;99096.19;115040;1199;23131;-80
2021/04/24 07:22:52;;;;;;;15.40;4.90;;;;;;;7.29;53.67;99091.59;115022;1200;26189;-80
2021/04/24 07:25:19;;;;;;;12.05;4.50;;;;;;;7.35;53.08;99088.06;115144;1199;23119;-80
2021/04/24 07:27:46;;;;;;;10.05;4.15;;;;;;;7.38;51.39;99087.66;115051;1199;23551;-80
2021/04/24 07:30:13;;;;;;;10.00;4.90;;;;;;;7.45;52.70;99089.52;115021;1202;23272;-80
2021/04/24 07:32:40;;;;;;;10.50;4.67;;;;;;;7.50;50.94;99097.85;114993;1199;23152;-80
2021/04/24 07:35:08;;;;;;;9.30;4.80;;;;;;;7.55;51.26;99098.06;115005;1199;23253;-79
2021/04/24 07:37:35;;;;;;;13.73;5.17;;;;;;;7.59;50.12;99085.75;115096;1199;23118;-80
2021/04/24 07:40:03;;;;;;;9.90;4.30;;;;;;;7.70;51.78;99092.41;115125;1200;23118;-80
2021/04/24 07:42:31;;;;;;;11.90;5.05;;;;;;;7.82;51.02;99089.89;115213;1200;23265;-80
2021/04/24 07:44:58;;;;;;;9.65;4.70;;;;;;;7.92;50.46;99091.12;115080;1199;24008;-80
2021/04/24 07:47:25;;;;;;;7.05;3.70;;;;;;;8.07;51.11;99099.00;115059;1202;23133;-80
2021/04/24 07:49:55;;;;;;;9.47;4.23;;;;;;;8.12;48.97;99101.91;115135;1202;23164;-80
2021/04/24 07:52:22;;;;;;;9.25;3.80;;;;;;;8.22;49.59;99100.65;115229;1202;23326;-80
2021/04/24 07:54:50;;;;;;;10.67;4.03;;;;;;;8.29;48.55;99096.86;115043;1202;23173;-80
2021/04/24 07:57:17;;;;;;;15.97;5.17;;;;;;;8.38;50.00;99089.31;115133;1199;23250;-80
2021/04/24 07:59:44;;;;;;;11.50;5.25;;;;;;;8.49;51.60;99093.26;115668;1199;23157;-80
2021/04/24 08:02:12;;;;;;;12.90;5.10;;;;;;;8.58;50.41;99094.67;118533;1202;22949;-78
2021/04/24 08:04:40;;;;;;;8.30;4.60;;;;;;;8.69;49.57;99077.72;116423;1200;23140;-78
2021/04/24 08:07:09;;;;;;;10.97;4.30;;;;;;;8.87;49.37;99092.42;115105;1200;23148;-78
2021/04/24 08:09:36;;;;;;;;;;;;;;;9.06;49.16;99091.45;115116;1204;23125;-78
2021/04/24 08:12:05;;;;;;;8.77;3.77;;;;;;;9.20;46.85;99078.61;115155;1199;21603;-78
2021/04/24 08:14:32;;;;;;;17.65;7.90;;;;;;;9.35;48.95;99085.60;115290;1200;23249;-80
2021/04/24 08:16:59;;;;;;;11.90;6.40;;;;;;;9.34;49.44;99082.06;115667;1199;23117;-80
2021/04/24 08:19:28;;;;;;;19.07;7.13;;;;;;;9.34;49.79;99087.50;115321;1199;23174;-80
2021/04/24 08:21:59;;;;;;;13.93;5.80;;;;;;;9.31;49.67;99083.36;115595;1199;23114;-80
2021/04/24 08:24:27;;;;;;;14.30;5.05;;;;;;;9.31;48.65;99091.50;115955;1199;23250;-79
2021/04/24 08:26:55;;;;;;;10.30;5.13;;;;;;;9.44;48.44;99079.69;117873;1202;23112;-78
2021/04/24 08:29:23;;;;;;;14.03;7.10;;;;;;;9.51;49.29;99085.07;115225;1199;24913;-80
2021/04/24 08:31:50;;;;;;;12.45;6.10;;;;;;;9.62;49.30;99084.33;116129;1199;23568;-78
2021/04/24 08:34:18;;;;;;;11.25;6.55;;;;;;;9.72;49.26;99072.10;116945;1200;25205;-78
2021/04/24 08:36:45;;;;;;;15.60;6.60;;;;;;;9.83;49.41;99080.37;115141;1199;23132;-81
2021/04/24 08:39:12;;;;;;;12.60;5.50;;;;;;;9.94;48.16;99077.97;114997;1200;23108;-79
2021/04/24 08:41:39;;;;;;;11.00;5.50;;;;;;;9.96;46.19;99079.39;114786;1200;23197;-79
2021/04/24 08:44:06;;;;;;;10.27;5.03;;;;;;;9.98;46.38;99079.98;115039;1202;23177;-79
2021/04/24 08:46:34;;;;;;;14.47;6.13;;;;;;;10.00;47.55;99079.77;115127;1202;26073;-79
2021/04/24 08:49:02;;;;;;;15.93;6.80;;;;;;;9.97;47.16;99077.48;116023;1200;26239;-79
2021/04/24 08:51:30;;;;;;;11.95;5.90;;;;;;;9.93;47.12;99074.39;115029;1200;24901;-79
2021/04/24 08:53:59;;;;;;;13.65;4.70;;;;;;;9.88;45.82;99074.27;115399;1203;23151;-79
2021/04/24 08:56:28;;;;;;;10.50;4.40;;;;;;;9.85;47.07;99077.42;115000;1202;26198;-79
2021/04/24 08:58:57;;;;;;;6.77;3.77;;;;;;;9.92;45.94;99075.47;115093;1199;23126;-79
2021/04/24 09:01:25;;;;;;;9.90;4.20;;;;;;;10.14;45.61;99075.02;115545;1200;23140;-79
2021/04/24 09:03:53;;;;;;;10.65;4.65;;;;;;;10.40;45.49;99071.18;115237;1198;23125;-79
2021/04/24 09:06:22;;;;;;;7.00;3.40;;;;;;;10.71;43.93;99055.67;115100;1200;23209;-80
2021/04/24 09:08:59;;;;;;;8.20;4.00;;;;;;;10.78;43.24;99061.86;115131;1200;23233;-80
2021/04/24 09:11:27;;;;;;;9.35;4.55;;;;;;;10.82;43.86;99055.73;115038;1199;23125;-80
2021/04/24 09:14:07;;;;;;;9.50;3.90;;;;;;;10.80;42.30;99057.01;115128;1200;23112;-80
2021/04/24 09:16:35;;;;;;;9.35;3.50;;;;;;;10.79;42.04;99058.09;115394;1199;24629;-80
2021/04/24 09:19:27;;;;;;;8.30;3.60;;;;;;;10.67;41.02;99052.59;115399;1199;24606;-80
2021/04/24 09:22:15;;;;;;;7.65;3.25;;;;;;;10.69;40.10;99055.91;115380;1200;26076;-80
2021/04/24 09:24:56;;;;;;;8.80;4.40;;;;;;;10.67;41.89;99054.48;115732;1200;23115;-80
2021/04/24 09:27:47;;;;;;;6.55;3.60;;;;;;;10.82;43.78;99060.36;115344;1202;26191;-79
2021/04/24 09:30:28;;;;;;;10.40;3.75;;;;;;;11.02;43.31;99049.97;115373;1199;26159;-80
2021/04/24 09:33:02;;;;;;;6.55;3.80;;;;;;;10.97;39.75;99049.02;115294;1202;27230;-80
2021/04/24 09:35:42;;;;;;;6.80;3.60;;;;;;;10.94;41.62;99054.92;115238;1199;23280;-80
2021/04/24 09:38:15;;;;;;;15.05;4.60;;;;;;;10.88;41.60;99051.23;115173;1202;23111;-80
2021/04/24 09:40:42;;;;;;;8.95;4.20;;;;;;;10.84;41.45;99047.33;115191;1200;23124;-80
2021/04/24 09:43:11;;;;;;;11.08;3.88;;;;;;;10.83;41.30;99048.38;115064;1203;23124;-80
2021/04/24 09:45:50;;;;;;;7.00;4.13;;;;;;;11.02;42.51;99041.80;115169;1200;27317;-80
2021/04/24 09:48:26;;;;;;;10.40;4.65;;;;;;;11.30;40.75;99037.59;115415;1200;23113;-79
2021/04/24 09:50:53;;;;;;;8.90;4.05;;;;;;;11.34;40.73;99041.49;115442;1199;26679;-80
2021/04/24 09:53:22;;;;;;;8.50;4.10;;;;;;;11.30;41.24;99044.95;115404;1200;23173;-80
2021/04/24 09:55:52;;;;;;;8.30;4.30;;;;;;;11.36;42.18;99039.35;115150;1200;23121;-80
2021/04/24 09:58:41;;;;;;;10.00;3.50;;;;;;;11.56;40.11;99036.30;115066;1203;23161;-80
2021/04/24 10:01:27;;;;;;;6.80;3.60;;;;;;;11.70;39.17;99036.87;115243;1202;23114;-80
2021/04/24 10:03:55;;;;;;;7.70;3.15;;;;;;;11.67;37.78;99025.60;115338;1199;23125;-80
2021/04/24 10:06:32;;;;;;;7.10;3.70;;;;;;;11.67;39.29;99025.60;115428;1200;27400;-80
2021/04/24 10:09:22;;;;;;;6.27;2.70;;;;;;;11.72;37.69;99026.57;115200;1202;23195;-79
2021/04/24 10:12:09;;;;;;;3.30;2.00;;;;;;;11.54;36.54;99024.80;115351;1202;23317;-80
2021/04/24 10:14:40;;;;;;;5.70;2.60;;;;;;;11.33;36.74;99011.73;115145;1200;23111;-80
2021/04/24 10:17:13;;;;;;;7.50;3.40;;;;;;;11.20;38.78;99019.06;115250;1200;23562;-80
2021/04/24 10:19:42;;;;;;;8.50;3.60;;;;;;;11.21;39.58;99017.19;115362;1200;23260;-80
2021/04/24 10:22:12;;;;;;;8.70;3.25;;;;;;;11.24;38.10;99016.70;115446;1200;27274;-80
2021/04/24 10:24:40;;;;;;;6.10;2.45;;;;;;;11.40;37.24;99007.84;115106;1202;23135;-80
2021/04/24 10:27:09;;;;;;;5.80;2.90;;;;;;;11.46;37.21;99013.42;115147;1199;23104;-80
2021/04/24 10:29:37;;;;;;;6.53;3.05;;;;;;;11.49;37.57;99011.05;115397;1200;22949;-80
2021/04/24 10:32:04;;;;;;;8.35;2.75;;;;;;;11.61;36.82;98994.66;115448;1200;28303;-80
2021/04/24 10:34:32;;;;;;;6.05;2.85;;;;;;;11.73;35.74;99000.93;115045;1202;23111;-80
2021/04/24 10:36:59;;;;;;;9.67;3.40;;;;;;;11.76;35.23;98995.00;115155;1202;26229;-80
2021/04/24 10:39:29;;;;;;;5.70;2.80;;;;;;;11.80;35.46;98994.53;115104;1200;24749;-80
2021/04/24 10:42:02;;;;;;;6.40;2.95;;;;;;;11.91;36.23;98990.97;115207;1199;23277;-80
2021/04/24 10:44:47;;;;;;;5.30;3.07;;;;;;;12.01;35.72;98990.38;115109;1202;23083;-79
2021/04/24 10:47:15;;;;;;;5.77;2.63;;;;;;;12.13;35.37;98991.98;115334;1199;23598;-80
2021/04/24 10:49:56;;;;;;;4.60;2.17;;;;;;;12.05;35.30;99000.55;116959;1200;23139;-80
2021/04/24 10:52:24;;;;;;;6.50;2.95;;;;;;;11.87;35.64;98987.04;115944;1199;27310;-79
2021/04/24 10:55:17;;;;;;;7.73;3.00;;;;;;;11.78;35.22;98990.13;115998;1198;23377;-80
2021/04/24 10:57:48;;;;;;;8.10;2.60;;;;;;;11.62;35.99;98987.32;115597;1202;26952;-80
2021/04/24 11:00:29;;;;;;;8.40;3.35;;;;;;;11.50;35.04;98981.86;115659;1200;23124;-80
2021/04/24 11:02:59;;;;;;;5.57;3.30;;;;;;;11.44;35.41;98989.10;115775;1198;23817;-80
2021/04/24 11:05:45;;;;;;;7.90;3.70;;;;;;;11.36;38.18;98975.81;115761;1200;23128;-80
2021/04/24 11:08:31;;;;;;;10.70;5.20;;;;;;;11.21;38.88;98979.84;115587;1202;23265;-80
2021/04/24 11:11:13;;;;;;;10.25;5.65;;;;;;;11.16;39.29;98978.90;115879;1202;27313;-80
2021/04/24 11:13:47;;;;;;;8.75;3.80;;;;;;;11.10;37.99;98977.95;118274;1202;23941;-80
2021/04/24 11:16:17;;;;;;;7.45;3.95;;;;;;;11.07;39.11;98975.69;118552;1199;23000;-80
2021/04/24 11:18:48;;;;;;;11.70;4.70;;;;;;;11.06;40.06;98976.74;118554;1202;22948;-80
2021/04/24 11:21:18;;;;;;;14.70;6.40;;;;;;;11.06;39.43;98974.02;118550;1199;23555;-80
2021/04/24 11:23:47;;;;;;;13.15;5.65;;;;;;;11.07;39.34;98972.97;118535;1199;22926;-80
2021/04/24 11:26:18;;;;;;;11.30;5.37;;;;;;;11.11;39.61;98974.14;117205;1200;23124;-80
2021/04/24 11:29:11;;;;;;;15.40;6.00;;;;;;;11.20;40.35;98972.72;115593;1200;23230;-80
2021/04/24 11:31:57;;;;;;;13.70;4.20;;;;;;;11.30;39.38;98974.88;115595;1200;23800;-80
2021/04/24 11:34:47;;;;;;;9.50;3.80;;;;;;;11.44;38.52;98978.20;115356;1198;26265;-80